メインページ
METAR-TAF:

METAR-TAF

空港 :

プラハ, チェコ共和国

ヴァーツラフ・ハヴェル・プラハ国際空港

緯度: 50-06N, 経度: 014-15E, 海抜: 365m

現時点の気象観測

当レポートは39分前の10:00(UTC)に作成
南西の風 12kt
気温 4°C
湿度 81%
気圧 1010 hPa
視程10km以上
高度1500ftの雲はほとんどない

METAR: LKPR 191000Z 23012KT 9999 FEW015 04/01 Q1010 NOSIG

時間: 11:39 (10:39 UTC)

予報

当レポートは5時間39分前の05:00(UTC)に作成
予報は19日の 06時(UTC)から 20日の 12時(UTC)まで有効
西/南西の風 14kt
視程10km以上
高度3500ftの千切れ雲あり
19日の 06時(UTC)から 20日の 12時(UTC)まで一時的に
西の風 16kt、最大30ktの突風を伴う
視程: 3000m
高度1000ftの雲はほとんどない, 塔状積雲.
高度1300ftの千切れ雲あり
にわか雨, 雪

TAF: LKPR 190500Z 1906/2012 24014KT 9999 BKN035 TEMPO 1906/2012 27016G30KT 3000 SHRASN FEW010TCU BKN013

4,000以上の空港の気象観測と天気予報(METAR報とTAF報)

利用可能な観測所は地図上に黄色い丸と赤い丸で示す。

丸の上にカーソルを重ねると観測所名を参照できる。

次にクリックすると気象観測と天気予報を参照できる。

マップの切り替え:黒色「×」印の緑ボタンをクリックして拡大、「-」印の緑ボタンをクリックして縮小、緑色の三角印をクリックして隣りの地図に切り替え


METAR-TAF: